sensor_id;sensor_type;location;lat;lon;timestamp;pressure;altitude;pressure_sealevel;temperature;humidity
77159;BME280;66129;45.890;13.714;2023-04-15T00:01:31;100068.44;;;7.92;93.27
77159;BME280;66129;45.890;13.714;2023-04-15T00:03:58;100066.91;;;8.00;92.77
77159;BME280;66129;45.890;13.714;2023-04-15T00:06:31;100057.53;;;8.01;92.84
77159;BME280;66129;45.890;13.714;2023-04-15T00:08:57;100043.75;;;7.90;91.83
77159;BME280;66129;45.890;13.714;2023-04-15T00:11:25;100037.00;;;7.93;92.04
77159;BME280;66129;45.890;13.714;2023-04-15T00:13:59;100043.00;;;7.95;91.81
77159;BME280;66129;45.890;13.714;2023-04-15T00:16:28;100028.25;;;7.79;92.26
77159;BME280;66129;45.890;13.714;2023-04-15T00:18:54;100056.72;;;8.02;92.42
77159;BME280;66129;45.890;13.714;2023-04-15T00:21:19;100050.63;;;7.94;92.60
77159;BME280;66129;45.890;13.714;2023-04-15T00:23:45;100054.00;;;7.93;92.66
77159;BME280;66129;45.890;13.714;2023-04-15T00:26:22;100036.16;;;7.94;92.56
77159;BME280;66129;45.890;13.714;2023-04-15T00:28:48;100021.44;;;7.80;92.78
77159;BME280;66129;45.890;13.714;2023-04-15T00:31:13;100019.78;;;7.82;92.09
77159;BME280;66129;45.890;13.714;2023-04-15T00:33:42;100048.91;;;7.94;92.04
77159;BME280;66129;45.890;13.714;2023-04-15T00:36:09;100042.84;;;7.88;92.79
77159;BME280;66129;45.890;13.714;2023-04-15T00:38:38;100002.75;;;7.38;94.24
77159;BME280;66129;45.890;13.714;2023-04-15T00:41:06;99998.25;;;7.25;94.92
77159;BME280;66129;45.890;13.714;2023-04-15T00:43:41;100056.63;;;7.53;95.79
77159;BME280;66129;45.890;13.714;2023-04-15T00:46:08;100024.66;;;7.29;96.58
77159;BME280;66129;45.890;13.714;2023-04-15T00:48:35;100043.81;;;7.52;95.74
77159;BME280;66129;45.890;13.714;2023-04-15T00:51:03;100001.97;;;7.41;95.05
77159;BME280;66129;45.890;13.714;2023-04-15T00:53:32;100052.88;;;7.77;94.14
77159;BME280;66129;45.890;13.714;2023-04-15T00:56:04;100029.78;;;7.73;93.49
77159;BME280;66129;45.890;13.714;2023-04-15T00:58:33;100044.41;;;7.81;92.96
77159;BME280;66129;45.890;13.714;2023-04-15T01:01:11;100009.44;;;7.74;92.39
77159;BME280;66129;45.890;13.714;2023-04-15T01:03:39;100027.22;;;7.71;92.59
77159;BME280;66129;45.890;13.714;2023-04-15T01:06:06;100058.34;;;7.98;93.29
77159;BME280;66129;45.890;13.714;2023-04-15T01:08:35;99997.97;;;7.55;92.49
77159;BME280;66129;45.890;13.714;2023-04-15T01:11:09;100030.69;;;7.73;93.00
77159;BME280;66129;45.890;13.714;2023-04-15T01:13:40;100008.34;;;7.62;93.70
77159;BME280;66129;45.890;13.714;2023-04-15T01:16:15;100073.66;;;7.98;93.36
77159;BME280;66129;45.890;13.714;2023-04-15T01:18:41;99971.47;;;7.45;92.57
77159;BME280;66129;45.890;13.714;2023-04-15T01:21:07;99975.84;;;7.52;92.56
77159;BME280;66129;45.890;13.714;2023-04-15T01:23:49;100052.94;;;7.83;93.77
77159;BME280;66129;45.890;13.714;2023-04-15T01:26:17;100068.38;;;7.89;93.92
77159;BME280;66129;45.890;13.714;2023-04-15T01:28:53;100025.56;;;7.73;94.09
77159;BME280;66129;45.890;13.714;2023-04-15T01:31:24;99974.00;;;7.45;93.91
77159;BME280;66129;45.890;13.714;2023-04-15T01:33:50;100057.53;;;8.01;93.06
77159;BME280;66129;45.890;13.714;2023-04-15T01:36:18;99987.78;;;7.55;93.46
77159;BME280;66129;45.890;13.714;2023-04-15T01:38:44;100002.31;;;7.57;93.61
77159;BME280;66129;45.890;13.714;2023-04-15T01:41:10;99981.72;;;7.50;93.66
77159;BME280;66129;45.890;13.714;2023-04-15T01:43:56;100061.66;;;7.93;93.76
77159;BME280;66129;45.890;13.714;2023-04-15T01:46:24;100001.41;;;7.57;94.18
77159;BME280;66129;45.890;13.714;2023-04-15T01:48:50;100061.50;;;7.85;94.31
77159;BME280;66129;45.890;13.714;2023-04-15T01:51:18;99972.91;;;7.31;93.88
77159;BME280;66129;45.890;13.714;2023-04-15T01:53:47;100011.69;;;7.60;94.18
77159;BME280;66129;45.890;13.714;2023-04-15T01:56:22;100019.28;;;7.57;93.62
77159;BME280;66129;45.890;13.714;2023-04-15T01:58:51;100005.69;;;7.58;93.37
77159;BME280;66129;45.890;13.714;2023-04-15T02:01:23;100010.94;;;7.65;93.77
77159;BME280;66129;45.890;13.714;2023-04-15T02:03:52;99968.88;;;7.44;93.41
77159;BME280;66129;45.890;13.714;2023-04-15T02:06:17;100020.34;;;7.68;93.36
77159;BME280;66129;45.890;13.714;2023-04-15T02:08:43;100030.72;;;7.76;93.80
77159;BME280;66129;45.890;13.714;2023-04-15T02:11:11;100009.97;;;7.59;93.60
77159;BME280;66129;45.890;13.714;2023-04-15T02:13:37;100023.09;;;7.76;93.87
77159;BME280;66129;45.890;13.714;2023-04-15T02:16:03;100006.44;;;7.52;94.43
77159;BME280;66129;45.890;13.714;2023-04-15T02:18:31;100032.91;;;7.57;95.18
77159;BME280;66129;45.890;13.714;2023-04-15T02:20:57;100000.38;;;7.46;94.67
77159;BME280;66129;45.890;13.714;2023-04-15T02:23:23;100028.00;;;7.68;94.29
77159;BME280;66129;45.890;13.714;2023-04-15T02:25:54;100023.66;;;7.64;93.93
77159;BME280;66129;45.890;13.714;2023-04-15T02:28:20;99945.56;;;7.24;93.45
77159;BME280;66129;45.890;13.714;2023-04-15T02:30:49;100006.50;;;7.55;93.66
77159;BME280;66129;45.890;13.714;2023-04-15T02:33:20;99983.25;;;7.40;93.76
77159;BME280;66129;45.890;13.714;2023-04-15T02:35:45;100022.59;;;7.53;94.17
77159;BME280;66129;45.890;13.714;2023-04-15T02:38:14;99954.78;;;7.18;94.24
77159;BME280;66129;45.890;13.714;2023-04-15T02:40:45;99974.22;;;7.14;94.82
77159;BME280;66129;45.890;13.714;2023-04-15T02:43:13;100029.47;;;7.55;94.40
77159;BME280;66129;45.890;13.714;2023-04-15T02:45:42;100051.94;;;7.74;94.54
77159;BME280;66129;45.890;13.714;2023-04-15T02:51:19;100046.75;;;7.69;94.49
77159;BME280;66129;45.890;13.714;2023-04-15T02:53:45;99963.25;;;7.17;94.68
77159;BME280;66129;45.890;13.714;2023-04-15T02:56:11;100012.44;;;7.54;94.64
77159;BME280;66129;45.890;13.714;2023-04-15T02:58:43;100045.88;;;7.69;94.32
77159;BME280;66129;45.890;13.714;2023-04-15T03:01:20;99988.34;;;7.40;94.61
77159;BME280;66129;45.890;13.714;2023-04-15T03:03:55;100026.16;;;7.59;94.55
77159;BME280;66129;45.890;13.714;2023-04-15T03:06:23;99997.59;;;7.35;94.31
77159;BME280;66129;45.890;13.714;2023-04-15T03:08:49;99974.44;;;7.25;93.60
77159;BME280;66129;45.890;13.714;2023-04-15T03:11:15;99963.34;;;7.23;93.43
77159;BME280;66129;45.890;13.714;2023-04-15T03:13:41;99984.78;;;7.31;93.07
77159;BME280;66129;45.890;13.714;2023-04-15T03:16:16;99961.50;;;7.14;93.70
77159;BME280;66129;45.890;13.714;2023-04-15T03:18:44;100007.22;;;7.50;93.26
77159;BME280;66129;45.890;13.714;2023-04-15T03:21:10;99935.81;;;7.05;92.88
77159;BME280;66129;45.890;13.714;2023-04-15T03:23:37;99997.91;;;7.52;92.92
77159;BME280;66129;45.890;13.714;2023-04-15T03:26:06;100014.88;;;7.50;92.74
77159;BME280;66129;45.890;13.714;2023-04-15T03:28:32;99959.06;;;7.19;92.77
77159;BME280;66129;45.890;13.714;2023-04-15T03:31:06;99953.06;;;7.17;92.59
77159;BME280;66129;45.890;13.714;2023-04-15T03:33:32;100014.09;;;7.54;92.96
77159;BME280;66129;45.890;13.714;2023-04-15T03:36:03;100011.66;;;7.58;92.38
77159;BME280;66129;45.890;13.714;2023-04-15T03:38:32;100006.41;;;7.51;92.60
77159;BME280;66129;45.890;13.714;2023-04-15T03:40:57;100004.03;;;7.60;92.85
77159;BME280;66129;45.890;13.714;2023-04-15T03:43:23;99942.00;;;7.16;93.34
77159;BME280;66129;45.890;13.714;2023-04-15T03:45:48;99985.09;;;7.47;93.02
77159;BME280;66129;45.890;13.714;2023-04-15T03:48:20;99991.06;;;7.48;93.05
77159;BME280;66129;45.890;13.714;2023-04-15T03:50:49;100040.06;;;7.74;93.42
77159;BME280;66129;45.890;13.714;2023-04-15T03:53:22;99944.63;;;7.21;93.51
77159;BME280;66129;45.890;13.714;2023-04-15T03:55:47;99983.25;;;7.40;93.15
77159;BME280;66129;45.890;13.714;2023-04-15T03:58:28;99960.03;;;7.27;93.42
77159;BME280;66129;45.890;13.714;2023-04-15T04:00:54;99974.72;;;7.38;92.95
77159;BME280;66129;45.890;13.714;2023-04-15T04:03:22;99976.38;;;7.36;92.78
77159;BME280;66129;45.890;13.714;2023-04-15T04:05:48;99952.19;;;7.16;92.91
77159;BME280;66129;45.890;13.714;2023-04-15T04:08:14;99953.00;;;7.14;92.71
77159;BME280;66129;45.890;13.714;2023-04-15T04:10:41;99979.53;;;7.23;93.35
77159;BME280;66129;45.890;13.714;2023-04-15T04:13:12;99940.91;;;7.04;92.87
77159;BME280;66129;45.890;13.714;2023-04-15T04:15:38;99960.59;;;7.12;92.97
77159;BME280;66129;45.890;13.714;2023-04-15T04:18:05;99989.03;;;7.32;92.83
77159;BME280;66129;45.890;13.714;2023-04-15T04:20:31;99965.75;;;7.14;92.28
77159;BME280;66129;45.890;13.714;2023-04-15T04:22:57;99960.78;;;7.21;93.08
77159;BME280;66129;45.890;13.714;2023-04-15T04:25:23;99966.81;;;7.25;93.18
77159;BME280;66129;45.890;13.714;2023-04-15T04:27:49;99981.13;;;7.20;93.00
77159;BME280;66129;45.890;13.714;2023-04-15T04:30:18;99935.69;;;6.98;93.48
77159;BME280;66129;45.890;13.714;2023-04-15T04:32:48;99948.47;;;6.99;93.03
77159;BME280;66129;45.890;13.714;2023-04-15T04:35:14;100003.38;;;7.27;92.98
77159;BME280;66129;45.890;13.714;2023-04-15T04:37:46;99969.88;;;7.09;93.29
77159;BME280;66129;45.890;13.714;2023-04-15T04:40:15;99991.38;;;7.23;93.17
77159;BME280;66129;45.890;13.714;2023-04-15T04:42:41;100002.59;;;7.31;92.89
77159;BME280;66129;45.890;13.714;2023-04-15T04:45:15;99968.34;;;7.17;92.74
77159;BME280;66129;45.890;13.714;2023-04-15T04:47:41;100004.41;;;7.36;92.79
77159;BME280;66129;45.890;13.714;2023-04-15T04:50:06;99979.31;;;7.13;92.68
77159;BME280;66129;45.890;13.714;2023-04-15T04:52:33;100017.34;;;7.44;92.69
77159;BME280;66129;45.890;13.714;2023-04-15T04:55:02;99958.06;;;7.12;92.36
77159;BME280;66129;45.890;13.714;2023-04-15T04:57:27;99958.88;;;7.10;93.10
77159;BME280;66129;45.890;13.714;2023-04-15T04:59:53;100006.72;;;7.24;94.09
77159;BME280;66129;45.890;13.714;2023-04-15T05:02:24;99959.69;;;7.09;93.30
77159;BME280;66129;45.890;13.714;2023-04-15T05:04:54;100001.94;;;7.39;91.69
77159;BME280;66129;45.890;13.714;2023-04-15T05:07:20;100052.00;;;7.77;91.74
77159;BME280;66129;45.890;13.714;2023-04-15T05:09:46;100053.66;;;7.75;91.72
77159;BME280;66129;45.890;13.714;2023-04-15T05:12:12;100040.00;;;7.71;91.88
77159;BME280;66129;45.890;13.714;2023-04-15T05:14:42;99990.69;;;7.28;91.60
77159;BME280;66129;45.890;13.714;2023-04-15T05:17:16;100075.91;;;7.82;91.05
77159;BME280;66129;45.890;13.714;2023-04-15T05:19:45;100026.22;;;7.64;90.68
77159;BME280;66129;45.890;13.714;2023-04-15T05:22:10;99987.56;;;7.43;90.72
77159;BME280;66129;45.890;13.714;2023-04-15T05:24:36;100059.75;;;7.83;90.94
77159;BME280;66129;45.890;13.714;2023-04-15T05:29:51;100063.28;;;7.89;90.48
77159;BME280;66129;45.890;13.714;2023-04-15T05:32:16;100022.00;;;7.66;90.48
77159;BME280;66129;45.890;13.714;2023-04-15T05:34:42;100032.28;;;7.68;90.48
77159;BME280;66129;45.890;13.714;2023-04-15T05:37:16;99995.22;;;7.44;91.03
77159;BME280;66129;45.890;13.714;2023-04-15T05:39:41;99981.44;;;7.35;91.58
77159;BME280;66129;45.890;13.714;2023-04-15T05:42:13;99954.09;;;7.26;91.35
77159;BME280;66129;45.890;13.714;2023-04-15T05:44:44;100074.44;;;7.94;91.43
77159;BME280;66129;45.890;13.714;2023-04-15T05:47:13;99997.91;;;7.52;91.35
77159;BME280;66129;45.890;13.714;2023-04-15T05:49:38;100012.50;;;7.57;91.74
77159;BME280;66129;45.890;13.714;2023-04-15T05:52:07;100044.34;;;7.77;91.96
77159;BME280;66129;45.890;13.714;2023-04-15T05:54:35;100028.19;;;7.78;91.46
77159;BME280;66129;45.890;13.714;2023-04-15T05:57:01;100077.28;;;8.09;91.67
77159;BME280;66129;45.890;13.714;2023-04-15T05:59:30;100075.56;;;8.08;91.48
77159;BME280;66129;45.890;13.714;2023-04-15T06:01:58;99988.59;;;7.54;92.04
77159;BME280;66129;45.890;13.714;2023-04-15T06:04:24;100083.25;;;8.11;90.83
77159;BME280;66129;45.890;13.714;2023-04-15T06:06:49;100005.94;;;7.71;90.53
77159;BME280;66129;45.890;13.714;2023-04-15T06:09:15;99998.25;;;7.68;89.90
77159;BME280;66129;45.890;13.714;2023-04-15T06:11:41;100079.22;;;8.21;89.89
77159;BME280;66129;45.890;13.714;2023-04-15T06:14:11;100022.47;;;7.89;90.42
77159;BME280;66129;45.890;13.714;2023-04-15T06:16:37;99998.50;;;7.81;90.60
77159;BME280;66129;45.890;13.714;2023-04-15T06:19:03;100029.63;;;8.08;90.30
77159;BME280;66129;45.890;13.714;2023-04-15T06:21:28;100017.72;;;8.10;89.73
77159;BME280;66129;45.890;13.714;2023-04-15T06:23:54;100041.25;;;8.40;89.00
77159;BME280;66129;45.890;13.714;2023-04-15T06:26:21;100075.66;;;8.62;88.33
77159;BME280;66129;45.890;13.714;2023-04-15T06:28:46;100079.25;;;8.73;88.87
77159;BME280;66129;45.890;13.714;2023-04-15T06:31:15;100051.84;;;8.63;88.33
77159;BME280;66129;45.890;13.714;2023-04-15T06:33:43;100076.81;;;8.80;87.94
77159;BME280;66129;45.890;13.714;2023-04-15T06:36:12;100034.56;;;8.48;87.83
77159;BME280;66129;45.890;13.714;2023-04-15T06:38:45;100031.41;;;8.63;86.82
77159;BME280;66129;45.890;13.714;2023-04-15T06:41:10;100082.97;;;8.92;86.21
77159;BME280;66129;45.890;13.714;2023-04-15T06:43:36;100020.41;;;8.67;86.75
77159;BME280;66129;45.890;13.714;2023-04-15T06:46:10;100011.84;;;8.63;87.52
77159;BME280;66129;45.890;13.714;2023-04-15T06:48:42;100042.22;;;9.01;87.05
77159;BME280;66129;45.890;13.714;2023-04-15T06:51:08;100032.03;;;9.04;86.39
77159;BME280;66129;45.890;13.714;2023-04-15T06:53:37;100033.88;;;9.14;85.58
77159;BME280;66129;45.890;13.714;2023-04-15T06:56:07;99991.84;;;8.94;84.63
77159;BME280;66129;45.890;13.714;2023-04-15T06:58:33;100026.31;;;9.22;84.21
77159;BME280;66129;45.890;13.714;2023-04-15T07:00:59;100011.66;;;9.10;83.95
77159;BME280;66129;45.890;13.714;2023-04-15T07:03:25;100029.81;;;9.30;84.40
77159;BME280;66129;45.890;13.714;2023-04-15T07:05:51;100077.22;;;9.71;84.46
77159;BME280;66129;45.890;13.714;2023-04-15T07:08:17;100032.59;;;9.49;84.73
77159;BME280;66129;45.890;13.714;2023-04-15T07:10:43;100080.03;;;9.91;84.27
77159;BME280;66129;45.890;13.714;2023-04-15T07:13:09;100081.97;;;10.10;84.23
77159;BME280;66129;45.890;13.714;2023-04-15T07:15:34;99998.72;;;9.70;82.31
77159;BME280;66129;45.890;13.714;2023-04-15T07:18:00;100038.47;;;10.10;80.48
77159;BME280;66129;45.890;13.714;2023-04-15T07:20:25;100033.44;;;10.19;78.93
77159;BME280;66129;45.890;13.714;2023-04-15T07:22:51;100077.25;;;10.49;79.10
77159;BME280;66129;45.890;13.714;2023-04-15T07:25:17;100066.19;;;10.55;77.90
77159;BME280;66129;45.890;13.714;2023-04-15T07:27:43;100077.44;;;10.75;76.75
77159;BME280;66129;45.890;13.714;2023-04-15T07:30:09;100035.41;;;10.52;76.71
77159;BME280;66129;45.890;13.714;2023-04-15T07:32:40;100083.50;;;10.83;76.03
77159;BME280;66129;45.890;13.714;2023-04-15T07:35:08;100045.84;;;10.76;76.76
77159;BME280;66129;45.890;13.714;2023-04-15T07:37:34;99991.06;;;10.60;76.94
77159;BME280;66129;45.890;13.714;2023-04-15T07:40:01;100027.25;;;11.11;76.57
77159;BME280;66129;45.890;13.714;2023-04-15T07:42:26;100046.22;;;11.34;76.61
77159;BME280;66129;45.890;13.714;2023-04-15T07:44:53;100048.84;;;11.49;75.76
77159;BME280;66129;45.890;13.714;2023-04-15T07:47:19;100020.59;;;11.41;74.59
77159;BME280;66129;45.890;13.714;2023-04-15T07:49:44;100057.50;;;11.72;75.36
77159;BME280;66129;45.890;13.714;2023-04-15T07:52:10;100022.41;;;11.71;75.03
77159;BME280;66129;45.890;13.714;2023-04-15T07:54:36;100037.91;;;11.96;72.96
77159;BME280;66129;45.890;13.714;2023-04-15T07:57:02;100049.00;;;11.86;73.48
77159;BME280;66129;45.890;13.714;2023-04-15T07:59:28;100092.75;;;12.19;75.39
77159;BME280;66129;45.890;13.714;2023-04-15T08:01:54;100081.63;;;12.23;74.92
77159;BME280;66129;45.890;13.714;2023-04-15T08:04:22;100086.78;;;12.33;73.62
77159;BME280;66129;45.890;13.714;2023-04-15T08:06:48;100043.97;;;12.20;73.62
77159;BME280;66129;45.890;13.714;2023-04-15T08:09:14;100017.38;;;12.17;72.07
77159;BME280;66129;45.890;13.714;2023-04-15T08:11:40;100007.09;;;12.05;73.59
77159;BME280;66129;45.890;13.714;2023-04-15T08:14:05;100035.41;;;12.35;72.21
77159;BME280;66129;45.890;13.714;2023-04-15T08:16:31;100051.66;;;12.46;69.25
77159;BME280;66129;45.890;13.714;2023-04-15T08:18:57;100049.09;;;12.65;70.30
77159;BME280;66129;45.890;13.714;2023-04-15T08:21:23;100026.00;;;12.50;66.69
77159;BME280;66129;45.890;13.714;2023-04-15T08:23:50;100043.97;;;12.62;67.28
77159;BME280;66129;45.890;13.714;2023-04-15T08:26:17;100098.84;;;12.91;68.08
77159;BME280;66129;45.890;13.714;2023-04-15T08:28:43;100093.69;;;12.97;68.44
77159;BME280;66129;45.890;13.714;2023-04-15T08:31:21;100099.72;;;12.98;67.60
77159;BME280;66129;45.890;13.714;2023-04-15T08:33:46;100081.72;;;12.95;67.59
77159;BME280;66129;45.890;13.714;2023-04-15T08:36:12;100022.53;;;12.69;66.60
77159;BME280;66129;45.890;13.714;2023-04-15T08:38:38;100052.53;;;12.85;66.36
77159;BME280;66129;45.890;13.714;2023-04-15T08:41:09;100018.25;;;12.65;66.37
77159;BME280;66129;45.890;13.714;2023-04-15T08:44:26;100037.97;;;12.81;66.74
77159;BME280;66129;45.890;13.714;2023-04-15T08:46:33;100077.41;;;12.98;66.00
77159;BME280;66129;45.890;13.714;2023-04-15T08:49:14;100095.41;;;12.98;67.52
77159;BME280;66129;45.890;13.714;2023-04-15T08:51:42;100107.41;;;12.87;66.41
77159;BME280;66129;45.890;13.714;2023-04-15T08:54:15;100028.53;;;12.38;66.60
77159;BME280;66129;45.890;13.714;2023-04-15T08:56:44;100030.25;;;12.35;67.59
77159;BME280;66129;45.890;13.714;2023-04-15T08:59:14;100066.25;;;12.60;68.16
77159;BME280;66129;45.890;13.714;2023-04-15T09:01:41;100122.84;;;12.96;67.35
77159;BME280;66129;45.890;13.714;2023-04-15T09:04:07;100116.84;;;13.05;67.13
77159;BME280;66129;45.890;13.714;2023-04-15T09:06:33;100083.41;;;12.91;66.60
77159;BME280;66129;45.890;13.714;2023-04-15T09:08:59;100075.69;;;12.82;67.09
77159;BME280;66129;45.890;13.714;2023-04-15T09:11:25;100097.13;;;12.96;67.67
77159;BME280;66129;45.890;13.714;2023-04-15T09:13:51;100086.84;;;13.11;67.29
77159;BME280;66129;45.890;13.714;2023-04-15T09:16:17;100073.06;;;13.27;65.98
77159;BME280;66129;45.890;13.714;2023-04-15T09:18:43;100114.16;;;13.69;65.51
77159;BME280;66129;45.890;13.714;2023-04-15T09:21:10;100108.94;;;13.85;65.00
77159;BME280;66129;45.890;13.714;2023-04-15T09:23:41;100084.06;;;13.75;63.67
77159;BME280;66129;45.890;13.714;2023-04-15T09:26:46;100069.34;;;14.01;63.13
77159;BME280;66129;45.890;13.714;2023-04-15T09:29:12;100099.19;;;14.45;62.72
77159;BME280;66129;45.890;13.714;2023-04-15T09:31:43;100018.56;;;14.24;61.67
77159;BME280;66129;45.890;13.714;2023-04-15T09:34:09;100107.69;;;14.59;62.75
77159;BME280;66129;45.890;13.714;2023-04-15T09:36:57;100077.81;;;14.32;63.57
77159;BME280;66129;45.890;13.714;2023-04-15T09:39:23;100071.00;;;14.13;62.31
77159;BME280;66129;45.890;13.714;2023-04-15T09:42:05;100053.88;;;14.06;62.79
77159;BME280;66129;45.890;13.714;2023-04-15T09:44:31;100063.31;;;14.02;63.01
77159;BME280;66129;45.890;13.714;2023-04-15T09:46:57;100093.34;;;14.21;60.80
77159;BME280;66129;45.890;13.714;2023-04-15T09:49:22;100072.06;;;13.76;62.18
77159;BME280;66129;45.890;13.714;2023-04-15T09:51:48;100113.22;;;13.88;64.10
77159;BME280;66129;45.890;13.714;2023-04-15T09:54:18;100105.56;;;13.73;67.71
77159;BME280;66129;45.890;13.714;2023-04-15T09:56:46;100085.75;;;13.81;63.49
77159;BME280;66129;45.890;13.714;2023-04-15T09:59:11;100081.44;;;13.89;65.14
77159;BME280;66129;45.890;13.714;2023-04-15T10:01:38;100111.38;;;14.23;64.54
77159;BME280;66129;45.890;13.714;2023-04-15T10:04:05;100110.41;;;14.37;64.26
77159;BME280;66129;45.890;13.714;2023-04-15T10:06:31;100058.13;;;14.11;64.70
77159;BME280;66129;45.890;13.714;2023-04-15T10:08:58;100035.00;;;13.96;64.97
77159;BME280;66129;45.890;13.714;2023-04-15T10:11:27;100089.03;;;14.22;66.43
77159;BME280;66129;45.890;13.714;2023-04-15T10:13:56;100107.97;;;14.15;67.13
77159;BME280;66129;45.890;13.714;2023-04-15T10:16:26;100111.38;;;14.17;67.72
77159;BME280;66129;45.890;13.714;2023-04-15T10:19:02;100045.53;;;13.53;67.85
77159;BME280;66129;45.890;13.714;2023-04-15T10:21:36;100030.19;;;13.28;68.44
77159;BME280;66129;45.890;13.714;2023-04-15T10:24:02;100061.88;;;13.35;68.22
77159;BME280;66129;45.890;13.714;2023-04-15T10:26:28;100042.22;;;13.18;68.00
77159;BME280;66129;45.890;13.714;2023-04-15T10:28:54;100029.38;;;13.15;68.52
77159;BME280;66129;45.890;13.714;2023-04-15T10:31:20;100104.72;;;13.68;69.61
77159;BME280;66129;45.890;13.714;2023-04-15T10:33:47;100072.13;;;13.58;69.25
77159;BME280;66129;45.890;13.714;2023-04-15T10:36:17;100074.63;;;13.77;68.00
77159;BME280;66129;45.890;13.714;2023-04-15T10:38:44;100087.28;;;14.24;66.50
77159;BME280;66129;45.890;13.714;2023-04-15T10:46:33;100099.53;;;15.07;61.85
77159;BME280;66129;45.890;13.714;2023-04-15T10:49:07;100110.56;;;15.29;64.93
77159;BME280;66129;45.890;13.714;2023-04-15T10:51:37;100043.72;;;14.99;62.49
77159;BME280;66129;45.890;13.714;2023-04-15T10:54:15;100079.69;;;15.15;62.35
77159;BME280;66129;45.890;13.714;2023-04-15T10:56:43;100099.53;;;15.10;64.74
77159;BME280;66129;45.890;13.714;2023-04-15T11:02:01;100047.56;;;14.51;67.23
77159;BME280;66129;45.890;13.714;2023-04-15T11:07:53;100031.78;;;13.61;68.88
77159;BME280;66129;45.890;13.714;2023-04-15T11:12:52;100048.22;;;13.19;69.69
77159;BME280;66129;45.890;13.714;2023-04-15T11:20:48;100044.84;;;12.42;69.29
77159;BME280;66129;45.890;13.714;2023-04-15T11:23:42;100063.66;;;12.32;68.72
77159;BME280;66129;45.890;13.714;2023-04-15T11:26:16;100127.94;;;12.41;71.25
77159;BME280;66129;45.890;13.714;2023-04-15T11:28:44;100079.81;;;11.86;73.11
77159;BME280;66129;45.890;13.714;2023-04-15T11:31:13;100127.78;;;11.92;74.06
77159;BME280;66129;45.890;13.714;2023-04-15T11:33:56;100137.88;;;11.56;74.99
77159;BME280;66129;45.890;13.714;2023-04-15T11:36:32;100146.13;;;11.16;73.51
77159;BME280;66129;45.890;13.714;2023-04-15T11:39:01;100102.75;;;10.37;75.52
77159;BME280;66129;45.890;13.714;2023-04-15T11:41:29;100129.94;;;10.26;76.85
77159;BME280;66129;45.890;13.714;2023-04-15T11:43:55;100081.03;;;10.01;80.81
77159;BME280;66129;45.890;13.714;2023-04-15T11:46:31;100070.94;;;10.16;79.41
77159;BME280;66129;45.890;13.714;2023-04-15T11:48:56;100163.00;;;10.87;80.74
77159;BME280;66129;45.890;13.714;2023-04-15T11:51:24;100105.59;;;10.67;76.22
77159;BME280;66129;45.890;13.714;2023-04-15T11:53:50;100102.13;;;10.62;77.07
77159;BME280;66129;45.890;13.714;2023-04-15T11:56:26;100163.97;;;11.00;79.12
77159;BME280;66129;45.890;13.714;2023-04-15T11:58:58;100116.59;;;10.57;75.79
77159;BME280;66129;45.890;13.714;2023-04-15T12:01:34;100083.97;;;10.40;78.40
77159;BME280;66129;45.890;13.714;2023-04-15T12:04:00;100171.69;;;11.01;81.30
77159;BME280;66129;45.890;13.714;2023-04-15T12:06:31;100132.38;;;11.02;83.21
77159;BME280;66129;45.890;13.714;2023-04-15T12:09:15;100093.88;;;10.99;80.51
77159;BME280;66129;45.890;13.714;2023-04-15T12:11:47;100167.84;;;11.57;81.85
77159;BME280;66129;45.890;13.714;2023-04-15T12:14:28;100136.25;;;11.67;77.65
77159;BME280;66129;45.890;13.714;2023-04-15T12:16:57;100096.88;;;11.68;72.17
77159;BME280;66129;45.890;13.714;2023-04-15T12:19:25;100113.25;;;11.94;70.20
77159;BME280;66129;45.890;13.714;2023-04-15T12:21:53;100135.59;;;12.26;73.39
77159;BME280;66129;45.890;13.714;2023-04-15T12:24:24;100095.34;;;12.29;76.56
77159;BME280;66129;45.890;13.714;2023-04-15T12:26:52;100090.25;;;12.65;74.09
77159;BME280;66129;45.890;13.714;2023-04-15T12:29:19;100073.13;;;12.76;74.58
77159;BME280;66129;45.890;13.714;2023-04-15T12:31:50;100108.22;;;13.40;73.88
77159;BME280;66129;45.890;13.714;2023-04-15T12:34:16;100079.06;;;13.26;67.84
77159;BME280;66129;45.890;13.714;2023-04-15T12:36:41;100089.41;;;12.90;72.45
77159;BME280;66129;45.890;13.714;2023-04-15T12:39:07;100123.69;;;13.43;68.82
77159;BME280;66129;45.890;13.714;2023-04-15T12:41:37;100107.28;;;13.66;67.08
77159;BME280;66129;45.890;13.714;2023-04-15T12:44:12;100098.53;;;14.08;67.73
77159;BME280;66129;45.890;13.714;2023-04-15T12:46:37;100074.38;;;14.33;62.30
77159;BME280;66129;45.890;13.714;2023-04-15T12:49:12;100128.94;;;14.91;63.38
77159;BME280;66129;45.890;13.714;2023-04-15T12:54:50;100059.50;;;14.67;62.07
77159;BME280;66129;45.890;13.714;2023-04-15T13:00:38;100070.50;;;14.87;62.60
77159;BME280;66129;45.890;13.714;2023-04-15T13:03:32;100080.00;;;14.81;60.73
77159;BME280;66129;45.890;13.714;2023-04-15T13:06:21;100117.72;;;14.97;59.96
77159;BME280;66129;45.890;13.714;2023-04-15T13:08:48;100115.19;;;14.89;58.00
77159;BME280;66129;45.890;13.714;2023-04-15T13:11:33;100118.56;;;14.96;61.66
77159;BME280;66129;45.890;13.714;2023-04-15T13:14:05;100068.09;;;14.62;61.06
77159;BME280;66129;45.890;13.714;2023-04-15T13:16:51;100093.09;;;14.58;59.63
77159;BME280;66129;45.890;13.714;2023-04-15T13:19:40;100075.28;;;14.23;59.68
77159;BME280;66129;45.890;13.714;2023-04-15T13:22:06;100113.94;;;14.24;60.91
77159;BME280;66129;45.890;13.714;2023-04-15T13:24:44;100063.50;;;13.74;59.79
77159;BME280;66129;45.890;13.714;2023-04-15T13:27:19;100069.53;;;13.67;59.89
77159;BME280;66129;45.890;13.714;2023-04-15T13:29:48;100093.56;;;13.60;63.57